Time;durP1;ratioP1;P1;durP2;ratioP2;P2;SDS_P1;SDS_P2;PMS_P1;PMS_P2;Temp;Humidity;BMP_temperature;BMP_pressure;BME280_temperature;BME280_humidity;BME280_pressure;Samples;Min_cycle;Max_cycle;Signal;HPM_P1;HPM_P2
2023/09/19 00:01:44;;;;;;;6.05;3.10;;;29.90;44.80;;;;;;5087014;28;20219;-85
2023/09/19 00:04:15;;;;;;;5.35;3.20;;;30.00;43.80;;;;;;5078154;28;20192;-85
2023/09/19 00:06:46;;;;;;;4.28;3.50;;;30.00;42.80;;;;;;5076000;28;20655;-87
2023/09/19 00:09:18;;;;;;;4.15;3.10;;;30.20;43.40;;;;;;5074464;28;20227;-86
2023/09/19 00:11:52;;;;;;;3.45;3.00;;;30.20;43.60;;;;;;5074819;28;20184;-86
2023/09/19 00:14:24;;;;;;;4.90;3.63;;;30.30;44.20;;;;;;5082860;28;20186;-86
2023/09/19 00:16:55;;;;;;;6.20;3.10;;;30.50;42.90;;;;;;5093110;28;20192;-86
2023/09/19 00:19:26;;;;;;;3.35;3.05;;;30.60;42.50;;;;;;5093976;28;20194;-85
2023/09/19 00:21:56;;;;;;;4.90;3.20;;;30.70;42.20;;;;;;5094375;28;20262;-85
2023/09/19 00:24:27;;;;;;;3.67;3.10;;;30.70;41.90;;;;;;5077348;28;20202;-86
2023/09/19 00:27:00;;;;;;;4.88;3.08;;;30.80;40.50;;;;;;5074273;28;20217;-85
2023/09/19 00:29:31;;;;;;;4.00;3.00;;;30.90;40.90;;;;;;5080855;28;20312;-84
2023/09/19 00:32:03;;;;;;;4.28;3.13;;;30.90;39.50;;;;;;5093508;28;20302;-83
2023/09/19 00:34:35;;;;;;;5.05;3.15;;;30.90;39.40;;;;;;5092998;28;20647;-82
2023/09/19 00:37:06;;;;;;;3.20;2.83;;;31.00;39.40;;;;;;5093607;28;20708;-83
2023/09/19 00:39:37;;;;;;;5.18;3.10;;;31.10;38.80;;;;;;5093576;28;20206;-83
2023/09/19 00:42:10;;;;;;;3.10;2.70;;;31.10;38.60;;;;;;5086156;28;20203;-84
2023/09/19 00:44:40;;;;;;;5.75;3.15;;;31.20;38.80;;;;;;5088940;28;20188;-83
2023/09/19 00:47:15;;;;;;;3.50;3.20;;;31.20;38.50;;;;;;5093989;28;20657;-83
2023/09/19 00:49:52;;;;;;;3.38;3.00;;;31.40;38.40;;;;;;5073179;28;20597;-84
2023/09/19 00:52:23;;;;;;;3.25;2.95;;;31.50;38.70;;;;;;5074708;28;20202;-83
2023/09/19 00:54:54;;;;;;;4.28;3.25;;;31.50;38.90;;;;;;5086955;28;20248;-84
2023/09/19 00:57:27;;;;;;;3.00;2.80;;;31.60;37.30;;;;;;5091085;28;20637;-84
2023/09/19 01:00:00;;;;;;;4.75;3.05;;;31.60;38.10;;;;;;5072424;28;20253;-82
2023/09/19 01:02:32;;;;;;;3.30;3.00;;;31.70;38.40;;;;;;5083932;28;20191;-83
2023/09/19 01:05:04;;;;;;;3.78;2.80;;;31.90;38.20;;;;;;5073254;28;20207;-83
2023/09/19 01:07:35;;;;;;;8.15;3.03;;;31.90;37.50;;;;;;5072961;28;20196;-83
2023/09/19 01:10:09;;;;;;;5.50;3.00;;;32.00;38.20;;;;;;5091136;28;20235;-83
2023/09/19 01:12:54;;;;;;;5.60;3.25;;;32.10;36.80;;;;;;5077708;28;20204;-84
2023/09/19 01:15:35;;;;;;;3.13;2.83;;;32.10;37.10;;;;;;5075011;28;20196;-84
2023/09/19 01:18:17;;;;;;;5.55;2.58;;;32.10;37.50;;;;;;5083059;28;20196;-83
2023/09/19 01:20:59;;;;;;;9.02;3.10;;;32.30;37.00;;;;;;5072563;28;20196;-83
2023/09/19 01:23:44;;;;;;;6.85;3.03;;;32.30;36.50;;;;;;5072352;28;20667;-82
2023/09/19 01:26:32;;;;;;;4.70;3.00;;;32.40;35.90;;;;;;5082171;28;20207;-82
2023/09/19 01:29:29;;;;;;;3.50;2.95;;;32.40;35.40;;;;;;5093347;28;20254;-84
2023/09/19 01:32:05;;;;;;;4.07;2.90;;;32.40;35.50;;;;;;5082972;28;20204;-84
2023/09/19 01:34:49;;;;;;;4.43;3.08;;;32.50;35.80;;;;;;5071891;28;20222;-84
2023/09/19 01:37:25;;;;;;;3.42;3.13;;;32.50;35.60;;;;;;5072160;28;20768;-85
2023/09/19 01:40:08;;;;;;;5.00;3.15;;;32.60;35.40;;;;;;5072440;28;20202;-83
2023/09/19 01:42:44;;;;;;;4.53;3.20;;;32.60;35.50;;;;;;5071847;28;20245;-84
2023/09/19 01:45:21;;;;;;;7.57;2.72;;;32.70;35.60;;;;;;5075890;28;20191;-84
2023/09/19 01:47:56;;;;;;;3.38;3.08;;;32.90;34.90;;;;;;5079306;28;20256;-83
2023/09/19 01:50:36;;;;;;;2.95;2.75;;;33.00;34.50;;;;;;5072203;28;20260;-84
2023/09/19 01:53:12;;;;;;;5.40;3.10;;;33.00;34.90;;;;;;5084092;28;20206;-84
2023/09/19 01:55:51;;;;;;;3.45;3.15;;;33.20;34.20;;;;;;5073860;28;20196;-84
2023/09/19 01:58:33;;;;;;;3.08;2.70;;;33.30;33.90;;;;;;5072432;28;20196;-84
2023/09/19 02:01:05;;;;;;;3.47;3.10;;;33.40;34.50;;;;;;5080963;28;20207;-83
2023/09/19 02:03:39;;;;;;;5.10;2.88;;;33.50;35.00;;;;;;5078064;28;20321;-84
2023/09/19 02:06:11;;;;;;;4.60;2.95;;;33.60;35.10;;;;;;5072515;28;20637;-83
2023/09/19 02:08:42;;;;;;;6.78;3.00;;;33.60;34.00;;;;;;5072008;28;20564;-84
2023/09/19 02:11:12;;;;;;;4.90;2.85;;;33.70;35.00;;;;;;5085021;28;20234;-83
2023/09/19 02:13:44;;;;;;;4.82;2.90;;;33.70;33.80;;;;;;5093255;28;20206;-83
2023/09/19 02:16:15;;;;;;;3.22;2.92;;;33.80;34.60;;;;;;5081120;28;20203;-82
2023/09/19 02:18:47;;;;;;;4.03;2.97;;;33.90;33.50;;;;;;5083447;28;20221;-83
2023/09/19 02:21:18;;;;;;;3.25;2.63;;;34.00;32.50;;;;;;5071636;28;20196;-83
2023/09/19 02:23:49;;;;;;;3.40;3.10;;;34.20;33.60;;;;;;5075663;28;20283;-83
2023/09/19 02:26:20;;;;;;;4.72;2.90;;;34.30;32.30;;;;;;5091632;28;20752;-83
2023/09/19 02:28:52;;;;;;;5.63;2.90;;;34.40;32.00;;;;;;5071691;28;20231;-82
2023/09/19 02:31:29;;;;;;;3.03;2.67;;;34.40;32.10;;;;;;5071680;28;20324;-83
2023/09/19 02:34:02;;;;;;;5.75;3.10;;;34.40;31.50;;;;;;5073175;28;20195;-83
2023/09/19 02:36:33;;;;;;;3.67;2.75;;;34.40;31.60;;;;;;5072099;28;20290;-83
2023/09/19 02:39:05;;;;;;;4.45;2.70;;;34.50;31.90;;;;;;5090646;28;20282;-83
2023/09/19 02:41:36;;;;;;;4.13;2.90;;;34.60;31.60;;;;;;5090439;28;20654;-83
2023/09/19 02:44:07;;;;;;;4.03;2.70;;;34.80;31.10;;;;;;5092088;28;20200;-84
2023/09/19 02:46:38;;;;;;;4.82;3.08;;;34.90;31.30;;;;;;5094108;28;20187;-85
2023/09/19 02:49:11;;;;;;;3.50;3.20;;;34.90;30.60;;;;;;5115168;28;20214;-84
2023/09/19 02:51:42;;;;;;;3.28;2.85;;;35.00;31.50;;;;;;5077000;28;20227;-84
2023/09/19 02:54:13;;;;;;;3.50;2.78;;;35.20;31.10;;;;;;5071483;28;20189;-85
2023/09/19 02:56:43;;;;;;;4.38;3.13;;;35.30;30.70;;;;;;5070407;28;20556;-85
2023/09/19 02:59:15;;;;;;;3.17;2.85;;;35.30;30.20;;;;;;5075571;28;20183;-84
2023/09/19 03:01:48;;;;;;;3.17;2.80;;;35.40;30.00;;;;;;5076783;28;20226;-85
2023/09/19 03:04:21;;;;;;;3.97;2.60;;;35.40;30.10;;;;;;5079154;28;20203;-84
2023/09/19 03:06:52;;;;;;;3.15;2.88;;;35.60;30.00;;;;;;5079285;28;20192;-85
2023/09/19 03:09:23;;;;;;;8.45;3.00;;;35.60;30.00;;;;;;5070751;28;20199;-85
2023/09/19 03:11:56;;;;;;;4.40;2.67;;;35.60;29.40;;;;;;5071148;28;20200;-85
2023/09/19 03:14:30;;;;;;;3.75;2.83;;;35.50;29.50;;;;;;5073490;28;20210;-84
2023/09/19 03:17:00;;;;;;;5.05;2.90;;;35.60;29.90;;;;;;5075331;28;20196;-84
2023/09/19 03:19:33;;;;;;;5.35;3.20;;;35.50;29.00;;;;;;5092686;28;20245;-85
2023/09/19 03:22:06;;;;;;;2.88;2.63;;;35.40;28.90;;;;;;5075016;28;20647;-84
2023/09/19 03:24:37;;;;;;;3.40;2.78;;;35.40;28.80;;;;;;5075281;28;20678;-86
2023/09/19 03:27:08;;;;;;;3.42;2.90;;;35.50;29.30;;;;;;5085503;28;20283;-86
2023/09/19 03:29:39;;;;;;;2.97;2.70;;;35.60;28.90;;;;;;5074256;28;20722;-86
2023/09/19 03:32:11;;;;;;;2.78;2.58;;;35.70;28.80;;;;;;5085820;28;20226;-86
2023/09/19 03:34:44;;;;;;;3.90;2.83;;;35.80;28.80;;;;;;5094774;28;20195;-85
2023/09/19 03:37:15;;;;;;;3.22;2.75;;;35.70;28.10;;;;;;5093515;28;20222;-84
2023/09/19 03:39:45;;;;;;;3.97;2.85;;;35.70;28.30;;;;;;5082582;28;20211;-84
2023/09/19 03:42:16;;;;;;;2.75;2.40;;;35.60;28.90;;;;;;5086865;28;20193;-83
2023/09/19 03:44:47;;;;;;;3.00;2.72;;;35.60;29.00;;;;;;5091068;28;20237;-84
2023/09/19 03:47:17;;;;;;;4.63;2.67;;;35.70;28.60;;;;;;5074516;28;20184;-85
2023/09/19 03:49:50;;;;;;;2.85;2.60;;;35.70;29.10;;;;;;5097349;28;20169;-84
2023/09/19 03:52:21;;;;;;;9.88;3.20;;;35.80;28.70;;;;;;5081658;28;20659;-83
2023/09/19 03:54:52;;;;;;;3.92;2.92;;;35.60;27.90;;;;;;5084415;28;20599;-83
2023/09/19 03:57:23;;;;;;;3.67;2.85;;;35.30;28.30;;;;;;5073285;28;20203;-84
2023/09/19 03:59:55;;;;;;;2.90;2.65;;;35.30;28.50;;;;;;5085602;28;20196;-84
2023/09/19 04:02:32;;;;;;;3.58;2.75;;;35.20;28.50;;;;;;5086346;28;20192;-85
2023/09/19 04:05:05;;;;;;;4.03;2.63;;;35.10;28.90;;;;;;5080749;28;20566;-83
2023/09/19 04:07:36;;;;;;;7.47;3.00;;;35.20;29.10;;;;;;5085014;28;20188;-84
2023/09/19 04:10:08;;;;;;;5.18;2.80;;;35.20;29.50;;;;;;5086010;28;20219;-84
2023/09/19 04:12:39;;;;;;;4.43;2.80;;;35.20;28.70;;;;;;5089741;28;20191;-84
2023/09/19 04:15:11;;;;;;;3.80;2.85;;;35.10;28.80;;;;;;5075885;28;20563;-84
2023/09/19 04:17:41;;;;;;;3.28;2.95;;;35.10;29.30;;;;;;5093920;28;20199;-84
2023/09/19 04:20:15;;;;;;;4.00;2.90;;;35.00;28.70;;;;;;5080861;28;20655;-85
2023/09/19 04:22:46;;;;;;;4.18;2.55;;;34.90;28.70;;;;;;5104988;28;20198;-85
2023/09/19 04:25:18;;;;;;;2.90;2.70;;;34.80;28.60;;;;;;5075969;28;20199;-84
2023/09/19 04:27:49;;;;;;;4.50;2.70;;;34.80;29.00;;;;;;5073468;28;20240;-83
2023/09/19 04:30:21;;;;;;;3.28;2.78;;;34.70;28.90;;;;;;5079939;28;20211;-83
2023/09/19 04:32:53;;;;;;;3.20;2.90;;;34.70;28.80;;;;;;5093229;28;20286;-84
2023/09/19 04:35:26;;;;;;;3.08;2.78;;;34.70;29.00;;;;;;5076016;28;20733;-85
2023/09/19 04:37:57;;;;;;;3.17;2.67;;;34.60;28.20;;;;;;5087164;28;20228;-82
2023/09/19 04:40:29;;;;;;;4.05;2.80;;;34.50;28.60;;;;;;5090364;28;20569;-86
2023/09/19 04:43:01;;;;;;;3.15;2.72;;;34.50;28.90;;;;;;5090432;28;20200;-83
2023/09/19 04:48:18;;;;;;;6.90;4.63;;;34.50;28.90;;;;;;5093426;28;20195;-84
2023/09/19 04:50:55;;;;;;;8.63;4.88;;;34.40;34.80;;;;;;5093992;28;20231;-85
2023/09/19 04:53:28;;;;;;;11.93;5.65;;;34.10;37.90;;;;;;5086423;28;20200;-84
2023/09/19 04:56:00;;;;;;;11.90;6.47;;;33.90;39.90;;;;;;5075712;28;20196;-85
2023/09/19 04:58:31;;;;;;;11.25;6.53;;;33.60;43.30;;;;;;5073819;28;20199;-85
2023/09/19 05:01:07;;;;;;;12.10;5.30;;;33.30;43.20;;;;;;5077456;28;20194;-85
2023/09/19 05:03:42;;;;;;;13.27;6.53;;;33.10;41.60;;;;;;5083118;28;20184;-84
2023/09/19 05:06:20;;;;;;;15.38;6.85;;;32.90;43.60;;;;;;5088644;28;20286;-84
2023/09/19 05:08:56;;;;;;;13.40;7.00;;;32.80;44.90;;;;;;5091225;28;20192;-85
2023/09/19 05:11:27;;;;;;;13.75;7.18;;;32.70;47.20;;;;;;5077908;28;20203;-85
2023/09/19 05:14:01;;;;;;;16.50;7.22;;;32.50;48.30;;;;;;5076742;28;20203;-85
2023/09/19 05:16:33;;;;;;;15.93;7.13;;;32.30;49.30;;;;;;5076280;28;20211;-85
2023/09/19 05:19:04;;;;;;;15.48;7.93;;;32.20;50.20;;;;;;5077284;28;20188;-86
2023/09/19 05:21:41;;;;;;;19.33;8.20;;;32.10;51.80;;;;;;5083458;28;20678;-83
2023/09/19 05:24:13;;;;;;;17.75;7.57;;;31.90;53.20;;;;;;5088657;28;20531;-84
2023/09/19 05:26:45;;;;;;;19.88;8.18;;;32.00;53.40;;;;;;5088083;28;20290;-85
2023/09/19 05:29:16;;;;;;;22.13;7.72;;;31.90;54.30;;;;;;5091358;28;20219;-85
2023/09/19 05:31:47;;;;;;;15.45;7.50;;;31.90;54.00;;;;;;5095453;28;20199;-85
2023/09/19 05:34:19;;;;;;;17.10;7.43;;;31.80;54.30;;;;;;5094082;28;20647;-83
2023/09/19 05:36:54;;;;;;;18.27;8.02;;;31.70;55.40;;;;;;5085425;22;20227;-83
2023/09/19 05:39:29;;;;;;;17.40;7.80;;;31.40;56.40;;;;;;5037226;28;20193;-84
2023/09/19 05:42:00;;;;;;;15.27;7.50;;;31.20;57.50;;;;;;5038494;28;20223;-82
2023/09/19 05:44:31;;;;;;;18.60;7.50;;;31.20;58.60;;;;;;5036426;28;20193;-84
2023/09/19 05:47:03;;;;;;;15.68;7.32;;;31.10;59.00;;;;;;5018773;28;20202;-85
2023/09/19 05:49:34;;;;;;;23.33;7.40;;;30.90;59.80;;;;;;5016526;28;20198;-84
2023/09/19 05:52:07;;;;;;;16.27;7.07;;;31.00;60.00;;;;;;5024500;28;20291;-84
2023/09/19 05:54:38;;;;;;;18.15;7.28;;;30.90;60.30;;;;;;5024901;28;20182;-83
2023/09/19 05:57:09;;;;;;;17.60;7.35;;;31.10;60.60;;;;;;5033304;28;20197;-83
2023/09/19 05:59:42;;;;;;;18.02;6.78;;;31.00;60.50;;;;;;5036495;28;20225;-80
2023/09/19 06:02:13;;;;;;;15.60;7.20;;;31.10;60.30;;;;;;5031807;28;20193;-83
2023/09/19 06:04:44;;;;;;;17.00;6.70;;;31.10;60.70;;;;;;5016137;28;20205;-82
2023/09/19 06:07:17;;;;;;;15.10;6.65;;;31.10;60.60;;;;;;5030857;28;22328;-83
2023/09/19 06:09:47;;;;;;;18.02;7.03;;;31.10;60.60;;;;;;5031712;28;20205;-82
2023/09/19 06:12:18;;;;;;;14.93;5.93;;;31.00;60.10;;;;;;5030833;28;20684;-82
2023/09/19 06:14:49;;;;;;;15.93;6.55;;;31.10;59.40;;;;;;5031699;28;20205;-82
2023/09/19 06:17:21;;;;;;;13.77;6.10;;;31.40;58.50;;;;;;5031342;28;20201;-82
2023/09/19 06:19:52;;;;;;;12.40;5.93;;;31.60;58.30;;;;;;5031813;28;20204;-83
2023/09/19 06:22:26;;;;;;;18.52;6.38;;;31.80;58.00;;;;;;5031286;28;20204;-82
2023/09/19 06:24:57;;;;;;;16.02;6.05;;;31.90;57.70;;;;;;5012911;28;20198;-84
2023/09/19 06:27:29;;;;;;;15.07;6.22;;;32.10;57.40;;;;;;5011506;28;20281;-83
2023/09/19 06:30:00;;;;;;;14.77;5.72;;;32.20;57.20;;;;;;5025005;28;20211;-83
2023/09/19 06:32:32;;;;;;;13.90;5.60;;;32.30;56.50;;;;;;5031313;28;20221;-83
2023/09/19 06:35:03;;;;;;;13.35;5.93;;;32.40;56.00;;;;;;5031390;28;20204;-85
2023/09/19 06:37:38;;;;;;;14.50;6.38;;;32.00;56.20;;;;;;5031497;28;20240;-85
2023/09/19 06:40:16;;;;;;;12.88;5.43;;;31.50;57.10;;;;;;5038673;28;20196;-84
2023/09/19 06:42:52;;;;;;;13.48;5.68;;;31.30;57.30;;;;;;5034928;28;20722;-84
2023/09/19 06:45:26;;;;;;;11.80;5.30;;;31.00;57.50;;;;;;5037682;28;20228;-85
2023/09/19 06:47:59;;;;;;;11.90;5.07;;;30.90;58.30;;;;;;5017088;28;20182;-85
2023/09/19 06:50:30;;;;;;;13.73;5.55;;;30.90;58.30;;;;;;5018198;28;20198;-85
2023/09/19 06:53:03;;;;;;;13.38;5.38;;;30.90;58.30;;;;;;5019238;28;20265;-85
2023/09/19 06:55:34;;;;;;;12.80;5.72;;;30.80;58.50;;;;;;5031086;28;20163;-83
2023/09/19 06:58:07;;;;;;;13.18;5.53;;;30.60;59.40;;;;;;5017907;28;20214;-85
2023/09/19 07:00:38;;;;;;;14.25;5.78;;;30.50;59.90;;;;;;5017493;28;20210;-85
2023/09/19 07:03:11;;;;;;;15.90;5.65;;;30.40;61.10;;;;;;5002022;28;20569;-83
2023/09/19 07:05:42;;;;;;;15.50;6.22;;;30.30;62.10;;;;;;5019193;28;20190;-85
2023/09/19 07:08:15;;;;;;;16.67;6.20;;;30.00;62.60;;;;;;5020062;28;20616;-85
2023/09/19 07:10:48;;;;;;;16.98;6.53;;;29.80;62.80;;;;;;5015212;28;20198;-87
2023/09/19 07:13:22;;;;;;;16.77;6.80;;;29.50;63.40;;;;;;5038175;28;20205;-86
2023/09/19 07:18:44;;;;;;;15.25;6.95;;;29.00;66.10;;;;;;5018581;28;20272;-86
2023/09/19 07:21:16;;;;;;;13.13;6.68;;;28.80;68.00;;;;;;5019936;28;20209;-86
2023/09/19 07:23:49;;;;;;;14.43;5.95;;;28.50;69.00;;;;;;5014774;28;20205;-84
2023/09/19 07:26:21;;;;;;;14.52;6.25;;;28.40;69.90;;;;;;5015327;28;20230;-86
2023/09/19 07:28:51;;;;;;;13.23;6.07;;;28.30;71.10;;;;;;5011094;28;20194;-87
2023/09/19 07:31:23;;;;;;;13.90;5.93;;;28.10;72.50;;;;;;5021801;28;20214;-84
2023/09/19 07:33:53;;;;;;;15.85;5.85;;;28.00;74.00;;;;;;5019451;28;20653;-85
2023/09/19 07:36:24;;;;;;;16.98;6.38;;;27.90;75.00;;;;;;5004475;28;20178;-84
2023/09/19 07:39:06;;;;;;;15.85;5.82;;;27.80;75.80;;;;;;5011946;28;20256;-85
2023/09/19 07:41:54;;;;;;;13.55;5.47;;;27.70;77.20;;;;;;5006343;28;20182;-85
2023/09/19 07:44:28;;;;;;;15.32;5.60;;;27.60;78.60;;;;;;5011752;28;20727;-85
2023/09/19 07:46:58;;;;;;;14.95;6.05;;;27.40;79.10;;;;;;4991281;28;20386;-84
2023/09/19 07:49:29;;;;;;;14.02;6.13;;;27.40;79.90;;;;;;4992544;28;20207;-84
2023/09/19 07:52:05;;;;;;;17.98;5.78;;;27.30;81.00;;;;;;4992094;28;20221;-85
2023/09/19 07:54:38;;;;;;;14.10;5.85;;;27.20;82.10;;;;;;5017264;28;20201;-86
2023/09/19 07:57:09;;;;;;;16.13;5.97;;;27.10;83.10;;;;;;5028428;28;20194;-88
2023/09/19 07:59:42;;;;;;;13.57;5.85;;;27.10;83.70;;;;;;5019181;28;20190;-86
2023/09/19 08:02:15;;;;;;;14.80;5.82;;;27.00;84.80;;;;;;5015735;28;20201;-86
2023/09/19 08:04:46;;;;;;;14.40;5.78;;;26.90;85.40;;;;;;5010837;28;20202;-82
2023/09/19 08:07:18;;;;;;;12.07;5.95;;;26.90;86.70;;;;;;5003997;28;20610;-88
2023/09/19 08:09:50;;;;;;;14.88;6.45;;;26.90;87.80;;;;;;5009168;28;20281;-88
2023/09/19 08:12:24;;;;;;;16.30;6.72;;;26.70;89.20;;;;;;5022295;28;20225;-85
2023/09/19 08:14:55;;;;;;;15.48;6.78;;;26.60;90.30;;;;;;5020250;28;20268;-86
2023/09/19 08:17:25;;;;;;;16.40;7.28;;;26.60;90.80;;;;;;5016812;28;20202;-86
2023/09/19 08:19:57;;;;;;;14.10;6.60;;;26.60;91.20;;;;;;5023777;28;20578;-84
2023/09/19 08:22:27;;;;;;;13.63;6.57;;;26.50;91.80;;;;;;5013210;28;20297;-88
2023/09/19 08:25:01;;;;;;;18.05;6.93;;;26.30;92.80;;;;;;5003231;28;20290;-88
2023/09/19 08:27:32;;;;;;;17.65;6.35;;;26.30;93.00;;;;;;5013744;28;20200;-93
2023/09/19 08:30:03;;;;;;;17.10;5.85;;;26.30;93.40;;;;;;5016146;28;20200;-87
2023/09/19 08:32:33;;;;;;;14.25;6.25;;;26.30;93.70;;;;;;5008631;28;20577;-86
2023/09/19 08:35:04;;;;;;;14.30;6.20;;;26.20;94.00;;;;;;5019182;28;20238;-86
2023/09/19 08:37:35;;;;;;;12.75;5.90;;;26.20;94.70;;;;;;5013633;28;20609;-87
2023/09/19 08:40:12;;;;;;;12.52;5.85;;;26.10;95.10;;;;;;5018973;28;20218;-87
2023/09/19 08:42:53;;;;;;;14.88;5.32;;;26.00;95.50;;;;;;5014309;28;20200;-86
2023/09/19 08:45:27;;;;;;;15.77;6.10;;;25.90;96.00;;;;;;5014378;28;20198;-86
2023/09/19 08:48:06;;;;;;;16.88;6.22;;;25.80;96.50;;;;;;5014006;28;20309;-87
2023/09/19 08:50:42;;;;;;;14.07;5.80;;;25.80;97.10;;;;;;5014294;28;20292;-86
2023/09/19 08:53:17;;;;;;;17.27;6.07;;;25.70;97.60;;;;;;5013454;28;20225;-87
2023/09/19 08:55:53;;;;;;;13.85;5.63;;;25.60;98.20;;;;;;5013189;28;20889;-87
2023/09/19 08:58:29;;;;;;;14.15;5.97;;;25.50;98.90;;;;;;5014765;28;20288;-85
2023/09/19 09:01:04;;;;;;;19.65;6.53;;;25.50;99.60;;;;;;5029777;28;20206;-85
2023/09/19 09:03:37;;;;;;;15.23;5.53;;;25.40;99.90;;;;;;5014301;28;20205;-86
2023/09/19 09:06:10;;;;;;;12.63;5.80;;;25.30;99.90;;;;;;5014862;28;20264;-86
2023/09/19 09:08:42;;;;;;;15.95;6.13;;;25.30;99.90;;;;;;5014102;28;20224;-87
2023/09/19 09:11:15;;;;;;;18.02;6.45;;;25.30;99.90;;;;;;5012790;28;20561;-88
2023/09/19 09:13:46;;;;;;;21.30;7.22;;;25.20;99.90;;;;;;5013689;28;20214;-87
2023/09/19 09:16:18;;;;;;;20.23;6.90;;;25.20;99.90;;;;;;5012921;28;20680;-88
2023/09/19 09:18:52;;;;;;;18.88;6.43;;;25.10;99.90;;;;;;4998710;28;20195;-87
2023/09/19 09:21:23;;;;;;;15.52;6.75;;;25.10;99.90;;;;;;4998106;28;20186;-87
2023/09/19 09:23:54;;;;;;;13.98;6.18;;;25.10;99.90;;;;;;5003961;28;20228;-82
2023/09/19 09:26:44;;;;;;;16.20;6.45;;;25.10;99.90;;;;;;5003511;28;20240;-82
2023/09/19 09:29:15;;;;;;;14.10;5.97;;;25.00;99.90;;;;;;5012276;28;20201;-82
2023/09/19 09:31:48;;;;;;;15.60;6.13;;;24.90;99.90;;;;;;5012669;28;20226;-82
2023/09/19 09:34:21;;;;;;;18.00;6.55;;;24.90;99.90;;;;;;5012838;28;20261;-83
2023/09/19 09:36:53;;;;;;;17.27;7.22;;;24.90;99.90;;;;;;5010713;28;20201;-84
2023/09/19 09:39:34;;;;;;;15.90;6.70;;;24.90;99.90;;;;;;5012440;28;20208;-83
2023/09/19 09:42:07;;;;;;;11.98;5.95;;;24.90;99.90;;;;;;5012463;28;20552;-83
2023/09/19 09:44:43;;;;;;;16.15;6.57;;;24.80;99.90;;;;;;5011268;28;20201;-84
2023/09/19 09:50:17;;;;;;;19.10;6.90;;;24.70;99.90;;;;;;4982830;28;20285;-83
2023/09/19 09:52:51;;;;;;;15.85;6.88;;;24.70;99.90;;;;;;5011680;28;20237;-83
2023/09/19 09:55:22;;;;;;;16.58;6.32;;;24.70;99.90;;;;;;5015716;28;20604;-83
2023/09/19 09:58:28;;;;;;;15.77;6.93;;;24.70;99.90;;;;;;5031987;28;20216;-83
2023/09/19 10:01:03;;;;;;;15.18;6.22;;;24.70;99.90;;;;;;4996426;28;20291;-83
2023/09/19 10:03:39;;;;;;;17.88;6.45;;;24.70;99.90;;;;;;5021405;28;20205;-83
2023/09/19 10:06:27;;;;;;;18.50;6.18;;;24.70;99.90;;;;;;5017705;28;20201;-82
2023/09/19 10:09:14;;;;;;;15.35;6.30;;;24.70;99.90;;;;;;5029581;28;20171;-83
2023/09/19 10:11:46;;;;;;;12.27;5.82;;;24.70;99.90;;;;;;5023219;28;20285;-83
2023/09/19 10:14:23;;;;;;;15.57;6.30;;;24.70;99.90;;;;;;5043094;28;20287;-83
2023/09/19 10:17:00;;;;;;;14.48;6.00;;;24.60;99.90;;;;;;5038110;28;20263;-82
2023/09/19 10:19:38;;;;;;;18.02;6.20;;;24.60;99.90;;;;;;5023366;28;20284;-84
2023/09/19 10:22:10;;;;;;;15.52;5.85;;;24.60;99.90;;;;;;5019426;28;20248;-84
2023/09/19 10:24:42;;;;;;;15.43;6.28;;;24.60;99.90;;;;;;5021484;28;20238;-84
2023/09/19 10:27:15;;;;;;;14.00;6.13;;;24.50;99.90;;;;;;5017920;28;20197;-83
2023/09/19 10:29:52;;;;;;;16.55;7.07;;;24.50;99.90;;;;;;5020614;28;20233;-83
2023/09/19 10:32:24;;;;;;;18.13;6.85;;;24.50;99.90;;;;;;5018132;28;20229;-83
2023/09/19 10:35:05;;;;;;;20.17;7.00;;;24.40;99.90;;;;;;5017496;28;20194;-83
2023/09/19 10:37:37;;;;;;;19.02;7.28;;;24.40;99.90;;;;;;5016035;28;20218;-84
2023/09/19 10:40:11;;;;;;;25.05;7.70;;;24.30;99.90;;;;;;5006760;28;20573;-83
2023/09/19 10:42:48;;;;;;;23.60;7.55;;;24.20;99.90;;;;;;4999710;28;20187;-84
2023/09/19 10:48:10;;;;;;;21.45;7.55;;;24.00;99.90;;;;;;5028169;28;20673;-84
2023/09/19 10:50:48;;;;;;;20.02;7.07;;;24.00;99.90;;;;;;5019851;28;20237;-83
2023/09/19 10:53:21;;;;;;;20.73;6.88;;;24.00;99.90;;;;;;5032020;28;20273;-84
2023/09/19 10:56:10;;;;;;;16.33;6.68;;;24.00;99.90;;;;;;5038246;28;20193;-84
2023/09/19 10:58:49;;;;;;;20.52;7.53;;;23.90;99.90;;;;;;5016873;28;20769;-83
2023/09/19 11:01:51;;;;;;;22.15;7.63;;;23.90;99.90;;;;;;5011468;28;20210;-84
2023/09/19 11:04:32;;;;;;;20.17;6.68;;;23.80;99.90;;;;;;5018002;28;20259;-83
2023/09/19 11:07:11;;;;;;;17.27;6.90;;;23.80;99.90;;;;;;5028518;28;20252;-85
2023/09/19 11:09:58;;;;;;;19.90;7.57;;;23.70;99.90;;;;;;5010439;28;20209;-85
2023/09/19 11:12:52;;;;;;;17.45;7.45;;;23.80;99.90;;;;;;5021746;28;20214;-85
2023/09/19 11:16:12;;;;;;;15.68;6.60;;;23.80;99.90;;;;;;5011181;28;20185;-84
2023/09/19 11:19:07;;;;;;;16.17;6.47;;;23.90;99.90;;;;;;5004990;28;20224;-84
2023/09/19 11:21:55;;;;;;;11.20;5.75;;;23.90;99.90;;;;;;5034697;28;20296;-85
2023/09/19 11:24:36;;;;;;;11.73;5.57;;;23.90;99.90;;;;;;5043819;28;20213;-84
2023/09/19 11:27:35;;;;;;;13.05;5.63;;;24.00;99.90;;;;;;5037037;28;20315;-85
2023/09/19 11:30:33;;;;;;;13.02;5.70;;;24.00;99.90;;;;;;5039913;28;20236;-87
2023/09/19 11:33:27;;;;;;;12.45;5.70;;;24.10;99.90;;;;;;5042716;28;20291;-85
2023/09/19 11:39:14;;;;;;;10.45;5.00;;;24.10;99.90;;;;;;5041443;28;20205;-84
2023/09/19 11:41:49;;;;;;;11.50;5.45;;;24.20;99.90;;;;;;5043054;28;20253;-84
2023/09/19 11:44:40;;;;;;;12.73;5.50;;;24.20;99.90;;;;;;5035512;28;20193;-83
2023/09/19 11:49:59;;;;;;;10.10;5.40;;;24.30;99.90;;;;;;5019108;28;20204;-84
2023/09/19 11:52:36;;;;;;;12.05;5.22;;;24.30;99.70;;;;;;5016584;28;20218;-84
2023/09/19 11:55:10;;;;;;;9.50;5.00;;;24.30;99.70;;;;;;5016909;28;20285;-84
2023/09/19 11:57:41;;;;;;;11.52;5.50;;;24.30;99.90;;;;;;5014927;28;20281;-84
2023/09/19 12:00:21;;;;;;;11.48;5.53;;;24.30;99.90;;;;;;5031319;28;20225;-83
2023/09/19 12:02:57;;;;;;;11.20;5.35;;;24.20;99.90;;;;;;5006942;28;20209;-83
2023/09/19 12:05:33;;;;;;;12.82;5.57;;;24.20;99.90;;;;;;5013908;28;20194;-84
2023/09/19 12:08:08;;;;;;;13.15;5.32;;;24.10;99.90;;;;;;5014640;28;20194;-83
2023/09/19 12:10:48;;;;;;;12.20;5.53;;;24.00;99.90;;;;;;5015110;28;20243;-86
2023/09/19 12:13:22;;;;;;;12.70;5.35;;;24.00;99.90;;;;;;5032080;28;20687;-86
2023/09/19 12:15:53;;;;;;;9.60;5.13;;;24.00;99.90;;;;;;5011512;28;20208;-83
2023/09/19 12:18:35;;;;;;;10.75;5.60;;;23.90;99.90;;;;;;5013740;28;20190;-84
2023/09/19 12:21:07;;;;;;;12.05;4.78;;;23.90;99.90;;;;;;5001252;28;20187;-84
2023/09/19 12:23:41;;;;;;;10.80;5.45;;;23.90;99.90;;;;;;5003469;28;20662;-83
2023/09/19 12:26:12;;;;;;;9.10;4.78;;;23.90;99.90;;;;;;5014745;28;20206;-83
2023/09/19 12:28:47;;;;;;;12.40;5.05;;;23.80;99.90;;;;;;5014015;28;20673;-82
2023/09/19 12:31:19;;;;;;;9.40;5.25;;;23.80;99.90;;;;;;5004006;28;20728;-83
2023/09/19 12:33:55;;;;;;;10.82;5.18;;;23.80;99.40;;;;;;5016632;28;20213;-83
2023/09/19 12:36:29;;;;;;;8.85;4.93;;;23.80;99.90;;;;;;5033689;28;20682;-83
2023/09/19 12:39:08;;;;;;;7.20;4.63;;;23.80;98.40;;;;;;5034202;28;20614;-83
2023/09/19 12:41:40;;;;;;;8.40;4.63;;;23.70;97.30;;;;;;5033748;28;20228;-83
2023/09/19 12:44:13;;;;;;;8.90;4.50;;;23.80;96.80;;;;;;5034293;28;20216;-83
2023/09/19 12:46:44;;;;;;;9.73;4.68;;;23.80;96.00;;;;;;5020418;28;20562;-83
2023/09/19 12:49:22;;;;;;;10.65;4.20;;;23.80;95.00;;;;;;5014035;28;20201;-83
2023/09/19 12:51:59;;;;;;;7.30;3.90;;;23.80;92.40;;;;;;4994435;28;20207;-83
2023/09/19 12:54:43;;;;;;;6.13;3.90;;;23.90;90.20;;;;;;5008089;28;20231;-83
2023/09/19 12:57:27;;;;;;;7.30;3.63;;;24.00;87.10;;;;;;5015380;28;20202;-83
2023/09/19 12:59:59;;;;;;;3.90;3.38;;;24.00;81.90;;;;;;5029537;28;20221;-83
2023/09/19 13:02:29;;;;;;;4.00;3.35;;;24.00;80.60;;;;;;5014836;28;20201;-83
2023/09/19 13:05:04;;;;;;;5.53;3.20;;;24.10;79.10;;;;;;4994433;28;20198;-83
2023/09/19 13:07:49;;;;;;;4.72;3.08;;;24.10;76.00;;;;;;4994537;28;20209;-84
2023/09/19 13:10:24;;;;;;;3.67;2.95;;;24.20;72.40;;;;;;4994372;28;20753;-84
2023/09/19 13:12:56;;;;;;;6.20;3.22;;;24.20;70.30;;;;;;5008178;28;20746;-82
2023/09/19 13:15:29;;;;;;;4.20;2.80;;;24.30;67.50;;;;;;5000034;28;20191;-83
2023/09/19 13:18:02;;;;;;;5.55;2.92;;;24.30;66.30;;;;;;5012770;28;20229;-83
2023/09/19 13:20:39;;;;;;;3.78;3.00;;;24.40;64.60;;;;;;5013129;28;20724;-83
2023/09/19 13:23:30;;;;;;;4.53;2.70;;;24.40;63.40;;;;;;5013344;28;20233;-84
2023/09/19 13:26:04;;;;;;;4.35;2.90;;;24.50;62.70;;;;;;5011794;28;20225;-83
2023/09/19 13:28:36;;;;;;;5.70;2.90;;;24.60;61.10;;;;;;5011195;28;20248;-83
2023/09/19 13:31:07;;;;;;;3.60;2.83;;;24.60;60.70;;;;;;4995665;28;20658;-83
2023/09/19 13:33:45;;;;;;;5.72;3.10;;;24.70;59.90;;;;;;5021001;28;20212;-83
2023/09/19 13:36:16;;;;;;;2.92;2.72;;;24.70;59.90;;;;;;5028698;28;20582;-83